createdAt,value
2023-03-03T00:01:26.061Z,1.68
2023-03-03T00:03:52.794Z,1.81
2023-03-03T00:06:20.383Z,1.72
2023-03-03T00:08:46.692Z,1.81
2023-03-03T00:11:13.319Z,1.89
2023-03-03T00:13:45.835Z,2.07
2023-03-03T00:16:25.224Z,2.04
2023-03-03T00:18:53.061Z,1.96
2023-03-03T00:21:25.579Z,2.02
2023-03-03T00:23:52.732Z,1.98
2023-03-03T00:26:39.355Z,1.93
2023-03-03T00:29:31.883Z,1.95
2023-03-03T00:32:19.204Z,1.99
2023-03-03T00:34:46.142Z,1.83
2023-03-03T00:37:31.693Z,2.13
2023-03-03T00:40:23.934Z,1.93
2023-03-03T00:42:55.508Z,1.96
2023-03-03T00:45:30.817Z,1.95
2023-03-03T00:47:58.814Z,2.00
2023-03-03T00:50:27.470Z,1.93
2023-03-03T00:53:01.520Z,1.98
2023-03-03T00:55:28.759Z,1.70
2023-03-03T00:57:55.278Z,1.47
2023-03-03T01:00:26.615Z,1.57
2023-03-03T01:02:53.299Z,1.77
2023-03-03T01:05:21.082Z,1.44
2023-03-03T01:07:48.217Z,1.43
2023-03-03T01:10:14.614Z,1.52
2023-03-03T01:12:41.316Z,1.47
2023-03-03T01:15:10.722Z,1.53
2023-03-03T01:17:38.502Z,1.50
2023-03-03T01:20:05.202Z,1.78
2023-03-03T01:22:31.591Z,1.18
2023-03-03T01:24:59.962Z,1.31
2023-03-03T01:27:28.467Z,1.52
2023-03-03T01:29:56.496Z,1.45
2023-03-03T01:32:24.490Z,1.64
2023-03-03T01:34:51.082Z,1.42
2023-03-03T01:37:17.454Z,1.63
2023-03-03T01:39:48.346Z,1.83
2023-03-03T01:42:15.690Z,2.03
2023-03-03T01:44:43.988Z,1.52
2023-03-03T01:47:25.436Z,1.45
2023-03-03T01:49:58.503Z,1.58
2023-03-03T01:52:30.374Z,1.51
2023-03-03T01:55:02.536Z,1.16
2023-03-03T01:57:33.614Z,1.26
2023-03-03T02:00:02.269Z,1.60
2023-03-03T02:02:41.709Z,1.81
2023-03-03T02:05:08.637Z,1.73
2023-03-03T02:07:36.077Z,1.68
2023-03-03T02:10:08.952Z,1.53
2023-03-03T02:12:45.343Z,1.50
2023-03-03T02:15:22.436Z,1.13
2023-03-03T02:17:53.480Z,1.08
2023-03-03T02:20:38.238Z,1.17
2023-03-03T02:23:29.466Z,1.27
2023-03-03T02:25:58.727Z,1.10
2023-03-03T02:28:35.179Z,1.25
2023-03-03T02:31:08.332Z,1.23
2023-03-03T02:33:34.731Z,0.95
2023-03-03T02:36:01.073Z,0.76
2023-03-03T02:38:36.401Z,0.70
2023-03-03T02:41:27.934Z,0.63
2023-03-03T02:44:07.731Z,0.89
2023-03-03T02:46:37.202Z,0.54
2023-03-03T02:49:05.314Z,0.81
2023-03-03T02:51:32.316Z,0.91
2023-03-03T02:53:58.677Z,1.05
2023-03-03T02:56:28.035Z,0.99
2023-03-03T02:58:54.526Z,1.10
2023-03-03T03:01:21.510Z,1.10
2023-03-03T03:03:48.904Z,0.78
2023-03-03T03:06:19.548Z,0.61
2023-03-03T03:08:46.794Z,0.44
2023-03-03T03:11:13.169Z,0.29
2023-03-03T03:13:40.028Z,0.25
2023-03-03T03:16:06.987Z,0.53
2023-03-03T03:18:33.311Z,0.35
2023-03-03T03:21:11.669Z,0.37
2023-03-03T03:23:39.873Z,0.57
2023-03-03T03:26:07.535Z,0.37
2023-03-03T03:28:34.650Z,0.34
2023-03-03T03:31:02.205Z,0.56
2023-03-03T03:33:28.654Z,0.15
2023-03-03T03:35:56.835Z,0.07
2023-03-03T03:38:26.818Z,0.06
2023-03-03T03:40:54.581Z,0.12
2023-03-03T03:43:22.389Z,0.47
2023-03-03T03:45:49.297Z,0.18
2023-03-03T03:48:17.486Z,0.22
2023-03-03T03:50:47.994Z,0.32
2023-03-03T03:53:14.966Z,-0.05
2023-03-03T03:55:41.393Z,-0.01
2023-03-03T03:58:08.779Z,0.31
2023-03-03T04:00:35.264Z,0.21
2023-03-03T04:03:02.027Z,0.35
2023-03-03T04:05:28.598Z,0.33
2023-03-03T04:07:55.806Z,0.58
2023-03-03T04:10:22.180Z,0.36
2023-03-03T04:12:48.541Z,0.38
2023-03-03T04:15:15.607Z,0.21
2023-03-03T04:17:43.098Z,0.19
2023-03-03T04:20:13.641Z,-0.05
2023-03-03T04:22:40.031Z,0.04
2023-03-03T04:25:07.295Z,-0.25
2023-03-03T04:27:39.134Z,-0.02
2023-03-03T04:30:07.127Z,-0.05
2023-03-03T04:32:33.962Z,-0.56
2023-03-03T04:35:08.088Z,-0.34
2023-03-03T04:37:37.730Z,-0.45
2023-03-03T04:40:07.748Z,-0.43
2023-03-03T04:42:35.367Z,-0.22
2023-03-03T04:45:03.187Z,-0.12
2023-03-03T04:47:30.395Z,-0.16
2023-03-03T04:49:56.933Z,-0.48
2023-03-03T04:52:23.475Z,-0.34
2023-03-03T04:54:49.894Z,-0.15
2023-03-03T04:57:16.707Z,-0.41
2023-03-03T04:59:43.702Z,-0.51
2023-03-03T05:02:10.180Z,-0.42
2023-03-03T05:04:36.513Z,-0.43
2023-03-03T05:07:03.248Z,-0.37
2023-03-03T05:09:29.609Z,-0.52
2023-03-03T05:11:56.157Z,-0.47
2023-03-03T05:14:22.847Z,-0.49
2023-03-03T05:16:49.306Z,-0.58
2023-03-03T05:19:15.639Z,-0.64
2023-03-03T05:21:42.279Z,-0.49
2023-03-03T05:24:12.966Z,-0.65
2023-03-03T05:26:39.997Z,-0.87
2023-03-03T05:29:06.905Z,-0.59
2023-03-03T05:31:33.304Z,-0.81
2023-03-03T05:33:59.638Z,-0.40
2023-03-03T05:36:25.960Z,-0.34
2023-03-03T05:38:52.283Z,-0.46
2023-03-03T05:41:18.698Z,-0.43
2023-03-03T05:43:45.227Z,-0.51
2023-03-03T05:46:11.983Z,-0.58
2023-03-03T05:48:38.309Z,-0.88
2023-03-03T05:51:05.028Z,-0.78
2023-03-03T05:53:31.320Z,-0.39
2023-03-03T05:55:57.937Z,-0.70
2023-03-03T05:58:24.241Z,-0.59
2023-03-03T06:00:50.535Z,-0.89
2023-03-03T06:03:17.065Z,-1.11
2023-03-03T06:05:43.638Z,-0.72
2023-03-03T06:08:10.099Z,-1.09
2023-03-03T06:10:36.612Z,-1.28
2023-03-03T06:13:05.836Z,-1.11
2023-03-03T06:15:32.344Z,-1.16
2023-03-03T06:17:58.710Z,-0.69
2023-03-03T06:20:25.183Z,-0.91
2023-03-03T06:22:51.502Z,-1.04
2023-03-03T06:25:18.219Z,-1.24
2023-03-03T06:27:44.538Z,-0.89
2023-03-03T06:30:12.741Z,-0.74
2023-03-03T06:32:39.474Z,-0.79
2023-03-03T06:35:06.205Z,-0.82
2023-03-03T06:37:32.516Z,-0.63
2023-03-03T06:39:58.971Z,-0.58
2023-03-03T06:42:25.266Z,-0.55
2023-03-03T06:44:51.599Z,-0.43
2023-03-03T06:47:17.953Z,-0.52
2023-03-03T06:49:44.278Z,-0.38
2023-03-03T06:52:28.546Z,-0.35
2023-03-03T06:54:57.860Z,-0.28
2023-03-03T06:57:29.993Z,-0.21
2023-03-03T07:00:14.275Z,-0.13
2023-03-03T07:02:41.263Z,-0.09
2023-03-03T07:05:14.893Z,0.03
2023-03-03T07:07:41.287Z,0.06
2023-03-03T07:10:17.825Z,0.16
2023-03-03T07:12:44.169Z,0.41
2023-03-03T07:15:30.066Z,0.32
2023-03-03T07:17:59.659Z,0.41
2023-03-03T07:20:39.564Z,0.28
2023-03-03T07:23:23.104Z,0.24
2023-03-03T07:25:49.484Z,0.36
2023-03-03T07:28:24.296Z,0.27
2023-03-03T07:30:52.383Z,0.28
2023-03-03T07:33:29.168Z,0.40
2023-03-03T07:35:58.208Z,0.42
2023-03-03T07:38:35.389Z,0.42
2023-03-03T07:41:05.141Z,0.55
2023-03-03T07:43:48.397Z,0.59
2023-03-03T07:46:23.095Z,0.57
2023-03-03T07:48:51.915Z,0.48
2023-03-03T07:51:29.108Z,0.57
2023-03-03T07:54:29.038Z,0.58
2023-03-03T07:57:19.324Z,0.50
2023-03-03T08:00:01.157Z,0.53
2023-03-03T08:02:38.484Z,0.63
2023-03-03T08:05:32.215Z,0.69
2023-03-03T08:08:10.111Z,0.67
2023-03-03T08:10:44.527Z,0.72
2023-03-03T08:13:38.400Z,0.77
2023-03-03T08:16:07.873Z,0.90
2023-03-03T08:18:47.811Z,0.86
2023-03-03T08:21:16.327Z,0.97
2023-03-03T08:23:42.637Z,1.00
2023-03-03T08:26:09.552Z,1.06
2023-03-03T08:28:35.850Z,0.97
2023-03-03T08:31:15.267Z,1.07
2023-03-03T08:33:46.828Z,1.09
2023-03-03T08:36:13.540Z,1.02
2023-03-03T08:38:40.454Z,1.17
2023-03-03T08:41:06.842Z,1.16
2023-03-03T08:43:33.235Z,1.15
2023-03-03T08:46:01.906Z,1.21
2023-03-03T08:48:28.954Z,1.20
2023-03-03T08:50:55.497Z,1.22
2023-03-03T08:53:22.893Z,1.23
2023-03-03T08:55:49.623Z,1.24
2023-03-03T08:58:18.384Z,1.40
2023-03-03T09:00:48.325Z,1.39
2023-03-03T09:03:15.644Z,1.44
2023-03-03T09:05:42.063Z,1.42
2023-03-03T09:08:10.595Z,1.37
2023-03-03T09:10:36.930Z,1.42
2023-03-03T09:13:11.175Z,1.58
2023-03-03T09:15:38.469Z,1.50
2023-03-03T09:18:22.559Z,1.58
2023-03-03T09:20:50.728Z,1.55
2023-03-03T09:23:33.570Z,1.66
2023-03-03T09:26:30.247Z,1.75
2023-03-03T09:29:14.911Z,1.60
2023-03-03T09:32:08.628Z,1.77
2023-03-03T09:34:42.361Z,1.66
2023-03-03T09:37:47.188Z,1.73
2023-03-03T09:40:44.203Z,1.86
2023-03-03T09:43:37.345Z,1.83
2023-03-03T09:46:23.680Z,1.88
2023-03-03T09:49:01.913Z,1.89
2023-03-03T09:51:53.308Z,2.01
2023-03-03T09:54:34.812Z,1.92
2023-03-03T09:57:27.360Z,2.01
2023-03-03T10:00:44.566Z,2.03
2023-03-03T10:03:39.022Z,2.23
2023-03-03T10:06:17.870Z,2.25
2023-03-03T10:08:52.799Z,2.36
2023-03-03T10:11:26.951Z,2.40
2023-03-03T10:14:04.169Z,2.53
2023-03-03T10:17:01.428Z,2.45
2023-03-03T10:19:39.940Z,2.47
2023-03-03T10:22:20.324Z,2.48
2023-03-03T10:25:02.577Z,2.54
2023-03-03T10:27:53.645Z,2.74
2023-03-03T10:30:39.829Z,2.85
2023-03-03T10:33:42.739Z,2.96
2023-03-03T10:36:31.021Z,2.85
2023-03-03T10:39:24.487Z,2.83
2023-03-03T10:42:09.542Z,2.80
2023-03-03T10:45:02.242Z,3.01
2023-03-03T10:47:40.080Z,3.76
2023-03-03T10:50:24.914Z,4.42
2023-03-03T10:53:03.500Z,4.67
2023-03-03T10:55:42.544Z,4.95
2023-03-03T10:58:24.022Z,5.43
2023-03-03T11:01:24.637Z,6.19
2023-03-03T11:04:10.030Z,6.73
2023-03-03T11:07:07.654Z,7.16
2023-03-03T11:09:50.638Z,7.59
2023-03-03T11:12:25.724Z,7.33
2023-03-03T11:15:03.678Z,7.46
2023-03-03T11:17:53.234Z,8.02
2023-03-03T11:20:29.043Z,8.01
2023-03-03T11:23:26.673Z,8.01
2023-03-03T11:26:09.105Z,8.23
2023-03-03T11:29:07.942Z,8.25
2023-03-03T11:32:27.285Z,8.85
2023-03-03T11:35:04.940Z,8.18
2023-03-03T11:38:05.774Z,8.22
2023-03-03T11:40:53.520Z,8.79
2023-03-03T11:43:38.053Z,9.19
2023-03-03T11:46:11.501Z,9.28
2023-03-03T11:48:47.395Z,9.58
2023-03-03T11:51:31.559Z,9.23
2023-03-03T11:54:03.967Z,9.41
2023-03-03T11:56:39.497Z,9.90
2023-03-03T11:59:13.567Z,9.69
2023-03-03T12:01:49.444Z,9.28
2023-03-03T12:04:22.198Z,9.48
2023-03-03T12:07:19.578Z,10.15
2023-03-03T12:09:53.477Z,10.03
2023-03-03T12:12:27.475Z,10.01
2023-03-03T12:15:15.612Z,9.40
2023-03-03T12:18:08.518Z,9.30
2023-03-03T12:21:16.143Z,9.80
2023-03-03T12:23:58.542Z,9.98
2023-03-03T12:26:32.413Z,10.53
2023-03-03T12:29:06.899Z,10.85
2023-03-03T12:32:00.472Z,11.31
2023-03-03T12:34:39.254Z,11.53
2023-03-03T12:37:21.893Z,12.10
2023-03-03T12:39:50.929Z,12.54
2023-03-03T12:42:49.676Z,12.37
2023-03-03T12:45:34.751Z,12.76
2023-03-03T12:48:13.280Z,13.51
2023-03-03T12:50:48.501Z,13.28
2023-03-03T12:53:26.943Z,13.77
2023-03-03T12:55:59.808Z,13.31
2023-03-03T12:58:35.093Z,13.91
2023-03-03T13:01:22.649Z,14.09
2023-03-03T13:03:57.902Z,14.71
2023-03-03T13:06:31.033Z,14.64
2023-03-03T13:09:21.543Z,14.75
2023-03-03T13:12:03.414Z,15.22
2023-03-03T13:14:41.605Z,15.32
2023-03-03T13:17:17.727Z,15.04
2023-03-03T13:19:51.228Z,14.71
2023-03-03T13:22:46.583Z,15.17
2023-03-03T13:25:36.748Z,15.15
2023-03-03T13:28:14.035Z,15.54
2023-03-03T13:30:56.399Z,13.36
2023-03-03T13:33:22.711Z,11.90
2023-03-03T13:35:54.953Z,10.87
2023-03-03T13:38:32.546Z,9.90
2023-03-03T13:41:06.808Z,9.74
2023-03-03T13:43:44.404Z,8.70
2023-03-03T13:46:32.152Z,8.50
2023-03-03T13:49:19.893Z,8.19
2023-03-03T13:52:09.743Z,7.96
2023-03-03T13:55:08.616Z,8.04
2023-03-03T13:58:16.551Z,7.97
2023-03-03T14:00:42.838Z,7.95
2023-03-03T14:03:09.085Z,7.64
2023-03-03T14:05:37.203Z,7.57
2023-03-03T14:08:31.013Z,7.72
2023-03-03T14:11:12.176Z,7.71
2023-03-03T14:13:47.707Z,7.63
2023-03-03T14:16:22.679Z,7.76
2023-03-03T14:19:01.588Z,7.61
2023-03-03T14:21:47.724Z,7.59
2023-03-03T14:24:19.304Z,7.60
2023-03-03T14:27:00.073Z,7.57
2023-03-03T14:29:26.332Z,7.61
2023-03-03T14:31:56.694Z,7.65
2023-03-03T14:34:22.967Z,7.72
2023-03-03T14:36:53.846Z,7.79
2023-03-03T14:39:34.885Z,7.63
2023-03-03T14:42:05.247Z,7.65
2023-03-03T14:44:38.346Z,7.46
2023-03-03T14:47:10.370Z,7.49
2023-03-03T14:49:38.392Z,7.53
2023-03-03T14:52:17.305Z,7.57
2023-03-03T14:54:46.719Z,7.53
2023-03-03T14:57:45.842Z,7.51
2023-03-03T15:00:12.179Z,7.54
2023-03-03T15:02:43.456Z,7.53
2023-03-03T15:05:16.168Z,7.49
2023-03-03T15:07:42.849Z,7.44
2023-03-03T15:10:10.925Z,7.46
2023-03-03T15:12:40.499Z,7.28
2023-03-03T15:15:08.203Z,7.32
2023-03-03T15:17:57.209Z,7.36
2023-03-03T15:20:35.573Z,7.29
2023-03-03T15:23:39.833Z,7.35
2023-03-03T15:26:16.190Z,7.34
2023-03-03T15:28:54.508Z,7.29
2023-03-03T15:31:51.870Z,7.18
2023-03-03T15:34:54.075Z,7.18
2023-03-03T15:37:57.726Z,7.32
2023-03-03T15:40:30.358Z,7.21
2023-03-03T15:43:26.307Z,7.11
2023-03-03T15:46:06.238Z,7.17
2023-03-03T15:48:46.022Z,7.13
2023-03-03T15:51:30.554Z,7.09
2023-03-03T15:54:22.465Z,7.03
2023-03-03T15:56:51.577Z,6.96
2023-03-03T15:59:32.430Z,6.95
2023-03-03T16:02:16.059Z,6.86
2023-03-03T16:05:08.214Z,6.88
2023-03-03T16:07:46.372Z,7.00
2023-03-03T16:10:21.487Z,6.86
2023-03-03T16:12:55.464Z,6.86
2023-03-03T16:15:34.422Z,6.82
2023-03-03T16:18:39.361Z,6.83
2023-03-03T16:21:33.312Z,6.71
2023-03-03T16:24:29.394Z,6.65
2023-03-03T16:27:16.684Z,6.65
2023-03-03T16:30:08.428Z,6.65
2023-03-03T16:32:41.396Z,6.38
2023-03-03T16:35:24.271Z,6.46
2023-03-03T16:38:19.375Z,6.41
2023-03-03T16:40:53.675Z,6.35
2023-03-03T16:43:43.099Z,6.26
2023-03-03T16:46:42.718Z,6.18
2023-03-03T16:49:30.148Z,6.07
2023-03-03T16:52:07.297Z,6.11
2023-03-03T16:54:54.121Z,5.98
2023-03-03T16:57:26.351Z,6.06
2023-03-03T16:59:58.999Z,6.01
2023-03-03T17:02:52.882Z,5.95
2023-03-03T17:05:31.342Z,5.85
2023-03-03T17:08:16.657Z,5.83
2023-03-03T17:10:50.211Z,5.78
2023-03-03T17:13:49.107Z,5.73
2023-03-03T17:16:51.901Z,5.52
2023-03-03T17:19:40.168Z,5.50
2023-03-03T17:22:20.265Z,5.44
2023-03-03T17:24:52.755Z,5.55
2023-03-03T17:27:45.829Z,5.39
2023-03-03T17:30:27.220Z,5.29
2023-03-03T17:33:09.230Z,5.31
2023-03-03T17:35:40.111Z,5.23
2023-03-03T17:38:18.406Z,5.17
2023-03-03T17:41:09.534Z,5.33
2023-03-03T17:43:51.216Z,5.19
2023-03-03T17:46:39.915Z,4.97
2023-03-03T17:49:18.330Z,4.89
2023-03-03T17:52:14.690Z,5.03
2023-03-03T17:55:04.386Z,4.83
2023-03-03T17:57:49.538Z,4.85
2023-03-03T18:00:31.049Z,4.79
2023-03-03T18:03:17.545Z,4.79
2023-03-03T18:06:37.282Z,4.69
2023-03-03T18:09:16.765Z,4.64
2023-03-03T18:12:00.063Z,4.61
2023-03-03T18:14:49.385Z,4.63
2023-03-03T18:17:28.703Z,4.75
2023-03-03T18:20:12.554Z,4.67
2023-03-03T18:22:46.716Z,4.50
2023-03-03T18:25:16.476Z,4.45
2023-03-03T18:27:45.484Z,4.38
2023-03-03T18:30:17.688Z,4.29
2023-03-03T18:33:00.870Z,4.35
2023-03-03T18:35:33.223Z,4.40
2023-03-03T18:38:17.950Z,4.29
2023-03-03T18:40:56.355Z,4.20
2023-03-03T18:43:44.597Z,4.12
2023-03-03T18:46:20.207Z,4.02
2023-03-03T18:49:09.928Z,4.20
2023-03-03T18:51:39.280Z,4.01
2023-03-03T18:54:26.130Z,4.10
2023-03-03T18:56:52.415Z,4.01
2023-03-03T18:59:31.020Z,4.04
2023-03-03T19:02:12.737Z,4.09
2023-03-03T19:04:43.136Z,3.97
2023-03-03T19:07:39.779Z,3.67
2023-03-03T19:10:44.557Z,3.80
2023-03-03T19:13:32.813Z,3.85
2023-03-03T19:16:04.122Z,3.63
2023-03-03T19:18:42.709Z,3.64
2023-03-03T19:21:12.173Z,3.53
2023-03-03T19:24:00.433Z,3.50
2023-03-03T19:26:30.187Z,3.43
2023-03-03T19:29:36.554Z,3.55
2023-03-03T19:32:18.548Z,3.46
2023-03-03T19:35:06.250Z,3.40
2023-03-03T19:38:04.261Z,3.39
2023-03-03T19:40:41.355Z,3.55
2023-03-03T19:43:17.394Z,3.32
2023-03-03T19:46:06.574Z,3.49
2023-03-03T19:48:44.994Z,3.15
2023-03-03T19:51:25.406Z,3.15
2023-03-03T19:54:15.026Z,3.01
2023-03-03T19:56:49.942Z,3.02
2023-03-03T19:59:26.945Z,3.02
2023-03-03T20:02:13.469Z,3.21
2023-03-03T20:04:57.999Z,3.13
2023-03-03T20:07:29.820Z,3.12
2023-03-03T20:10:06.190Z,3.18
2023-03-03T20:12:59.649Z,2.96
2023-03-03T20:15:42.107Z,3.04
2023-03-03T20:18:25.941Z,2.87
2023-03-03T20:21:13.505Z,2.99
2023-03-03T20:23:54.745Z,3.16
2023-03-03T20:26:39.347Z,3.15
2023-03-03T20:29:27.080Z,3.12
2023-03-03T20:32:12.630Z,2.85
2023-03-03T20:35:05.246Z,2.81
2023-03-03T20:37:57.616Z,2.99
2023-03-03T20:40:50.605Z,2.70
2023-03-03T20:43:54.324Z,2.73
2023-03-03T20:46:27.442Z,2.73
2023-03-03T20:49:31.531Z,2.79
2023-03-03T20:52:32.126Z,2.92
2023-03-03T20:55:19.218Z,2.96
2023-03-03T20:57:56.648Z,2.82
2023-03-03T21:00:38.659Z,2.88
2023-03-03T21:03:20.811Z,2.67
2023-03-03T21:05:57.881Z,2.58
2023-03-03T21:08:53.756Z,2.60
2023-03-03T21:11:42.087Z,2.56
2023-03-03T21:14:30.908Z,2.44
2023-03-03T21:17:02.376Z,2.26
2023-03-03T21:19:33.846Z,2.48
2023-03-03T21:22:02.383Z,2.54
2023-03-03T21:24:49.305Z,2.54
2023-03-03T21:27:32.306Z,2.61
2023-03-03T21:30:12.802Z,2.42
2023-03-03T21:32:47.918Z,2.52
2023-03-03T21:35:21.968Z,2.29
2023-03-03T21:37:52.922Z,2.65
2023-03-03T21:40:26.460Z,2.45
2023-03-03T21:42:55.198Z,2.44
2023-03-03T21:45:21.712Z,2.23
2023-03-03T21:47:48.259Z,2.23
2023-03-03T21:50:14.920Z,2.34
2023-03-03T21:52:41.286Z,2.48
2023-03-03T21:55:08.500Z,2.39
2023-03-03T21:57:37.706Z,2.04
2023-03-03T22:00:06.357Z,1.91
2023-03-03T22:02:34.433Z,1.93
2023-03-03T22:05:03.028Z,1.88
2023-03-03T22:07:29.880Z,2.02
2023-03-03T22:09:56.266Z,1.88
2023-03-03T22:12:22.600Z,1.96
2023-03-03T22:14:49.275Z,1.88
2023-03-03T22:17:15.594Z,1.95
2023-03-03T22:19:41.881Z,2.02
2023-03-03T22:22:08.194Z,1.98
2023-03-03T22:24:34.503Z,1.86
2023-03-03T22:27:00.792Z,1.84
2023-03-03T22:29:27.194Z,1.87
2023-03-03T22:31:53.537Z,1.62
2023-03-03T22:34:19.917Z,1.45
2023-03-03T22:36:46.246Z,1.89
2023-03-03T22:39:12.568Z,1.89
2023-03-03T22:41:38.845Z,1.66
2023-03-03T22:44:05.235Z,1.66
2023-03-03T22:46:31.608Z,1.74
2023-03-03T22:48:57.954Z,1.87
2023-03-03T22:51:26.004Z,1.71
2023-03-03T22:53:52.318Z,1.83
2023-03-03T22:56:18.633Z,1.93
2023-03-03T22:58:44.998Z,1.92
2023-03-03T23:01:11.288Z,1.60
2023-03-03T23:03:37.664Z,1.59
2023-03-03T23:06:04.372Z,1.72
2023-03-03T23:08:30.693Z,1.49
2023-03-03T23:10:57.039Z,1.55
2023-03-03T23:13:25.017Z,1.53
2023-03-03T23:15:51.360Z,1.52
2023-03-03T23:18:17.683Z,1.36
2023-03-03T23:20:45.812Z,1.31
2023-03-03T23:23:12.463Z,1.21
2023-03-03T23:25:38.813Z,1.41
2023-03-03T23:28:05.452Z,1.40
2023-03-03T23:30:31.779Z,1.33
2023-03-03T23:32:58.096Z,1.22
2023-03-03T23:35:24.553Z,1.02
2023-03-03T23:37:50.892Z,1.08
2023-03-03T23:40:17.336Z,0.98
2023-03-03T23:42:44.182Z,1.26
2023-03-03T23:45:11.877Z,1.17
2023-03-03T23:47:38.322Z,1.01
2023-03-03T23:50:05.239Z,0.88
2023-03-03T23:52:31.915Z,1.08
2023-03-03T23:54:58.372Z,1.00
2023-03-03T23:57:24.854Z,1.02
2023-03-03T23:59:51.216Z,1.28
